Time;durP1;ratioP1;P1;durP2;ratioP2;P2;SDS_P1;SDS_P2;PMS_P1;PMS_P2;Temp;Humidity;BMP_temperature;BMP_pressure;BME280_temperature;BME280_humidity;BME280_pressure;Samples;Min_cycle;Max_cycle;Signal;HPM_P1;HPM_P2
2023/07/10 00:00:18;;;;;;;21.10;11.53;;;22.80;99.90;;;;;;5122009;27;20467;-62
2023/07/10 00:02:45;;;;;;;11.87;9.30;;;22.70;99.90;;;;;;5118698;27;21415;-62
2023/07/10 00:05:14;;;;;;;17.80;11.53;;;22.70;99.90;;;;;;5122637;27;21212;-62
2023/07/10 00:07:42;;;;;;;34.70;11.43;;;22.60;99.90;;;;;;5120947;27;20874;-62
2023/07/10 00:10:12;;;;;;;13.20;11.87;;;22.60;99.90;;;;;;5102878;27;20498;-62
2023/07/10 00:12:40;;;;;;;23.27;10.50;;;22.50;99.90;;;;;;5123217;27;20571;-62
2023/07/10 00:15:15;;;;;;;17.90;12.30;;;22.60;99.90;;;;;;5125585;27;20478;-61
2023/07/10 00:17:45;;;;;;;16.37;10.23;;;22.70;99.90;;;;;;5123041;27;20960;-62
2023/07/10 00:20:17;;;;;;;13.73;12.30;;;22.80;99.90;;;;;;5127246;27;20479;-62
2023/07/10 00:22:45;;;;;;;14.93;11.00;;;22.80;99.90;;;;;;5119807;27;20485;-62
2023/07/10 00:25:15;;;;;;;16.70;11.80;;;22.70;99.90;;;;;;5119754;27;20483;-61
2023/07/10 00:27:43;;;;;;;19.13;10.40;;;22.70;99.90;;;;;;5121207;27;20478;-62
2023/07/10 00:30:16;;;;;;;12.63;11.40;;;22.80;99.90;;;;;;5110311;27;20490;-62
2023/07/10 00:32:44;;;;;;;23.40;10.93;;;;;;;;;;5127424;27;20480;-62
2023/07/10 00:35:16;;;;;;;21.67;12.40;;;22.60;99.90;;;;;;5127546;27;20472;-62
2023/07/10 00:37:45;;;;;;;13.57;11.47;;;22.60;99.90;;;;;;5115176;27;20532;-61
2023/07/10 00:40:23;;;;;;;17.10;13.80;;;22.50;99.90;;;;;;5115626;27;20833;-61
2023/07/10 00:42:58;;;;;;;23.67;13.13;;;22.40;99.90;;;;;;5108347;27;20646;-62
2023/07/10 00:45:25;;;;;;;12.97;11.63;;;22.40;99.90;;;;;;5123224;27;20474;-61
2023/07/10 00:48:04;;;;;;;15.50;11.97;;;22.30;99.90;;;;;;5129057;27;20483;-62
2023/07/10 00:50:37;;;;;;;20.30;12.90;;;22.10;99.90;;;;;;5118437;27;20476;-62
2023/07/10 00:53:10;;;;;;;18.87;12.67;;;21.90;99.90;;;;;;5126436;27;20829;-61
2023/07/10 00:55:40;;;;;;;16.20;12.23;;;21.90;99.90;;;;;;5125365;27;20815;-62
2023/07/10 00:58:20;;;;;;;23.20;15.60;;;21.70;99.90;;;;;;5120765;27;20475;-62
2023/07/10 01:01:04;;;;;;;20.50;12.57;;;21.70;99.90;;;;;;5125696;27;20810;-62
2023/07/10 01:03:31;;;;;;;14.77;11.80;;;21.80;99.90;;;;;;5118649;27;20911;-61
2023/07/10 01:06:02;;;;;;;13.70;11.83;;;21.90;99.90;;;;;;5110435;27;20907;-62
2023/07/10 01:08:30;;;;;;;20.10;13.60;;;22.10;99.90;;;;;;5108503;27;20757;-62
2023/07/10 01:10:59;;;;;;;14.10;10.60;;;22.20;99.90;;;;;;5126447;27;20478;-62
2023/07/10 01:13:26;;;;;;;15.83;10.13;;;22.10;99.90;;;;;;5130233;27;20463;-61
2023/07/10 01:15:53;;;;;;;28.77;12.07;;;22.00;99.90;;;;;;5127598;27;20474;-62
2023/07/10 01:18:24;;;;;;;18.37;14.57;;;21.90;99.90;;;;;;5132014;27;20538;-62
2023/07/10 01:20:59;;;;;;;17.37;12.17;;;21.90;99.90;;;;;;5127567;27;20472;-62
2023/07/10 01:23:26;;;;;;;28.67;14.10;;;21.90;99.90;;;;;;5100109;27;20502;-62
2023/07/10 01:25:58;;;;;;;32.13;12.87;;;19.80;99.90;;;;;;5088064;27;20849;-62
2023/07/10 01:28:25;;;;;;;20.63;12.70;;;22.00;99.90;;;;;;5129246;27;20536;-62
2023/07/10 01:30:55;;;;;;;17.17;11.73;;;22.00;99.90;;;;;;5132137;27;20562;-62
2023/07/10 01:33:26;;;;;;;21.83;13.43;;;22.10;99.90;;;;;;5125906;27;20518;-62
2023/07/10 01:35:57;;;;;;;31.10;11.17;;;22.20;99.90;;;;;;5084783;27;20477;-62
2023/07/10 01:38:31;;;;;;;20.20;10.90;;;22.10;99.90;;;;;;5065922;27;20477;-61
2023/07/10 01:41:05;;;;;;;14.80;12.07;;;21.80;99.90;;;;;;5116167;27;20485;-62
2023/07/10 01:43:32;;;;;;;21.03;11.20;;;21.50;99.90;;;;;;5118260;27;20576;-62
2023/07/10 01:45:59;;;;;;;16.97;12.13;;;21.40;99.90;;;;;;5111483;27;20477;-62
2023/07/10 01:48:29;;;;;;;15.17;12.20;;;21.40;99.90;;;;;;5116175;27;20962;-62
2023/07/10 01:50:56;;;;;;;15.63;12.43;;;21.60;99.90;;;;;;5119982;27;20480;-62
2023/07/10 01:53:23;;;;;;;15.03;11.57;;;21.80;99.90;;;;;;5095660;27;20481;-62
2023/07/10 01:55:51;;;;;;;34.13;11.50;;;22.10;99.90;;;;;;5113187;27;20970;-61
2023/07/10 01:58:18;;;;;;;15.13;12.70;;;22.20;99.90;;;;;;5097554;27;20830;-62
2023/07/10 02:00:49;;;;;;;15.90;11.63;;;22.20;99.90;;;;;;5084935;27;20588;-61
2023/07/10 02:03:15;;;;;;;21.30;12.60;;;22.30;99.90;;;;;;5092952;27;20472;-62
2023/07/10 02:05:42;;;;;;;13.90;12.07;;;22.40;99.90;;;;;;5111087;27;20484;-62
2023/07/10 02:08:09;;;;;;;20.03;13.60;;;22.40;99.90;;;;;;5120143;27;21181;-62
2023/07/10 02:10:36;;;;;;;18.70;12.10;;;22.50;99.90;;;;;;5118913;27;20480;-62
2023/07/10 02:13:04;;;;;;;20.53;12.57;;;22.40;99.90;;;;;;5114200;27;21402;-61
2023/07/10 02:15:31;;;;;;;16.23;12.10;;;24.30;99.90;;;;;;5116029;27;20515;-61
2023/07/10 02:17:58;;;;;;;35.97;13.93;;;22.50;99.90;;;;;;5084782;27;20472;-62
2023/07/10 02:20:25;;;;;;;15.40;11.53;;;22.40;99.90;;;;;;5112645;27;20470;-62
2023/07/10 02:22:52;;;;;;;20.50;13.57;;;22.40;99.90;;;;;;5118964;27;20994;-62
2023/07/10 02:25:19;;;;;;;25.30;13.50;;;22.40;99.90;;;;;;5110696;27;20973;-62
2023/07/10 02:27:46;;;;;;;15.63;12.80;;;22.40;99.90;;;;;;5099520;27;20477;-62
2023/07/10 02:30:14;;;;;;;17.00;15.17;;;22.50;99.90;;;;;;5105947;27;20490;-62
2023/07/10 02:32:41;;;;;;;18.67;12.50;;;22.60;99.90;;;;;;5115932;27;20468;-62
2023/07/10 02:35:09;;;;;;;15.40;13.80;;;22.60;99.90;;;;;;5095680;27;20471;-62
2023/07/10 02:37:35;;;;;;;17.70;13.23;;;22.50;99.90;;;;;;5119006;27;20481;-62
2023/07/10 02:40:03;;;;;;;15.10;12.70;;;22.40;99.90;;;;;;5115468;27;20493;-62
2023/07/10 02:42:30;;;;;;;14.93;12.13;;;22.30;99.90;;;;;;5100105;27;20495;-62
2023/07/10 02:44:57;;;;;;;19.03;13.63;;;22.30;99.90;;;;;;5106798;27;20490;-62
2023/07/10 02:47:25;;;;;;;20.80;12.50;;;22.50;99.90;;;;;;5104154;27;20489;-62
2023/07/10 02:49:52;;;;;;;14.50;11.53;;;22.50;99.90;;;;;;5102371;27;21018;-62
2023/07/10 02:52:19;;;;;;;18.33;10.20;;;22.60;99.90;;;;;;5117221;27;20479;-62
2023/07/10 02:54:46;;;;;;;22.97;11.03;;;22.70;99.90;;;;;;5112386;27;20472;-62
2023/07/10 02:57:13;;;;;;;16.00;11.87;;;22.70;99.90;;;;;;5110064;27;20956;-62
2023/07/10 02:59:39;;;;;;;15.80;11.90;;;22.70;99.90;;;;;;5114374;27;21028;-62
2023/07/10 03:02:07;;;;;;;21.77;13.30;;;22.70;99.90;;;;;;5079095;27;20856;-62
2023/07/10 03:04:37;;;;;;;18.10;12.30;;;22.60;99.90;;;;;;5065185;27;20561;-62
2023/07/10 03:07:04;;;;;;;21.10;13.77;;;;;;;;;;5078514;27;20480;-62
2023/07/10 03:09:31;;;;;;;15.90;11.70;;;22.50;99.90;;;;;;5083853;27;20480;-62
2023/07/10 03:11:58;;;;;;;16.77;12.90;;;22.50;99.90;;;;;;5088554;27;20560;-62
2023/07/10 03:14:25;;;;;;;17.83;11.47;;;;;;;;;;5084132;27;20472;-62
2023/07/10 03:16:53;;;;;;;16.13;12.87;;;22.50;99.90;;;;;;5092365;27;20522;-62
2023/07/10 03:19:20;;;;;;;11.83;10.50;;;;;;;;;;5088065;27;20849;-62
2023/07/10 03:21:48;;;;;;;22.90;12.33;;;22.70;99.90;;;;;;5099781;27;20473;-62
2023/07/10 03:24:15;;;;;;;15.20;11.67;;;;;;;;;;5098298;27;20486;-62
2023/07/10 03:26:42;;;;;;;17.63;10.63;;;22.70;99.90;;;;;;5088888;27;20481;-62
2023/07/10 03:29:11;;;;;;;17.20;13.43;;;22.70;99.90;;;;;;5088290;28;20481;-62
2023/07/10 03:31:38;;;;;;;15.63;11.87;;;22.70;99.90;;;;;;5087830;27;20480;-62
2023/07/10 03:34:05;;;;;;;17.90;13.07;;;22.80;99.90;;;;;;5083934;27;20470;-61
2023/07/10 03:36:33;;;;;;;16.53;11.60;;;22.70;99.90;;;;;;5057019;28;20485;-62
2023/07/10 03:39:01;;;;;;;11.20;10.17;;;22.70;99.90;;;;;;5069723;27;20758;-62
2023/07/10 03:41:28;;;;;;;10.50;9.50;;;22.80;99.90;;;;;;5083690;27;20497;-62
2023/07/10 03:43:55;;;;;;;10.80;9.70;;;22.70;99.90;;;;;;5075645;27;20493;-62
2023/07/10 03:46:22;;;;;;;11.47;10.40;;;22.70;99.90;;;;;;5090749;27;20731;-62
2023/07/10 03:48:49;;;;;;;14.37;10.80;;;22.70;99.90;;;;;;5085398;27;20492;-61
2023/07/10 03:51:16;;;;;;;14.07;11.93;;;22.70;99.90;;;;;;5083501;27;20478;-62
2023/07/10 03:53:43;;;;;;;12.27;10.40;;;22.60;99.90;;;;;;5084964;27;20687;-62
2023/07/10 03:56:12;;;;;;;13.43;12.13;;;22.60;99.90;;;;;;5087244;28;20485;-62
2023/07/10 03:58:42;;;;;;;26.63;13.33;;;22.70;99.90;;;;;;5071163;28;20743;-61
2023/07/10 04:01:09;;;;;;;15.70;12.63;;;22.70;99.90;;;;;;5094793;28;20992;-62
2023/07/10 04:03:37;;;;;;;14.10;11.47;;;22.70;99.90;;;;;;5079823;28;20616;-61
2023/07/10 04:06:06;;;;;;;15.67;11.43;;;22.70;99.90;;;;;;5082960;27;20489;-62
2023/07/10 04:08:34;;;;;;;31.03;13.57;;;22.70;99.90;;;;;;5103738;27;20488;-64
2023/07/10 04:11:03;;;;;;;29.83;14.57;;;22.60;99.90;;;;;;5080776;28;20489;-61
2023/07/10 04:13:31;;;;;;;16.50;11.73;;;22.50;99.90;;;;;;5105597;27;20481;-63
2023/07/10 04:16:02;;;;;;;20.53;13.10;;;22.50;99.90;;;;;;5094324;28;20855;-62
2023/07/10 04:18:30;;;;;;;14.80;11.60;;;22.50;99.90;;;;;;5098913;27;20970;-61
2023/07/10 04:20:57;;;;;;;11.73;10.50;;;22.50;99.90;;;;;;5092036;27;20542;-61
2023/07/10 04:23:24;;;;;;;15.93;12.70;;;22.10;99.90;;;;;;5086884;28;20856;-61
2023/07/10 04:25:51;;;;;;;14.93;11.20;;;22.70;99.90;;;;;;5095825;28;20470;-61
2023/07/10 04:28:18;;;;;;;16.23;11.73;;;22.70;99.90;;;;;;5093834;28;20481;-62
2023/07/10 04:30:47;;;;;;;13.20;11.33;;;22.70;99.90;;;;;;5087416;28;20483;-61
2023/07/10 04:33:14;;;;;;;18.07;13.87;;;22.70;99.90;;;;;;5088261;28;20482;-61
2023/07/10 04:35:41;;;;;;;11.97;10.83;;;22.70;99.90;;;;;;5089866;28;20477;-61
2023/07/10 04:38:08;;;;;;;16.63;13.13;;;22.70;99.90;;;;;;5094236;28;20469;-60
2023/07/10 04:40:35;;;;;;;15.73;11.33;;;22.70;99.90;;;;;;5082193;28;20505;-61
2023/07/10 04:43:03;;;;;;;14.77;13.10;;;22.60;99.90;;;;;;5091648;28;20477;-61
2023/07/10 04:45:31;;;;;;;11.83;10.43;;;22.70;99.90;;;;;;5089141;28;20485;-62
2023/07/10 04:47:59;;;;;;;13.10;9.03;;;22.90;99.90;;;;;;5094329;28;20465;-60
2023/07/10 04:50:26;;;;;;;22.53;12.73;;;23.10;99.90;;;;;;5083218;28;20481;-61
2023/07/10 04:52:53;;;;;;;12.23;11.03;;;23.10;99.90;;;;;;5090315;28;20469;-62
2023/07/10 04:55:19;;;;;;;13.87;10.83;;;23.10;99.90;;;;;;5072760;28;20479;-62
2023/07/10 04:57:46;;;;;;;12.17;10.80;;;23.10;99.90;;;;;;5102318;28;20492;-62
2023/07/10 05:00:14;;;;;;;13.10;11.80;;;23.10;99.90;;;;;;5095613;28;20483;-61
2023/07/10 05:02:41;;;;;;;25.47;11.63;;;23.10;99.90;;;;;;5087326;27;20804;-61
2023/07/10 05:05:09;;;;;;;15.33;13.77;;;23.30;99.90;;;;;;5100520;27;20488;-61
2023/07/10 05:07:36;;;;;;;14.00;11.67;;;23.30;99.90;;;;;;5092936;28;20473;-62
2023/07/10 05:10:04;;;;;;;13.40;12.00;;;23.30;99.90;;;;;;5088257;28;20460;-62
2023/07/10 05:12:30;;;;;;;13.13;10.87;;;23.20;99.90;;;;;;5083621;28;20479;-62
2023/07/10 05:14:57;;;;;;;21.40;13.87;;;;;;;;;;5098420;27;20507;-63
2023/07/10 05:17:25;;;;;;;16.20;12.60;;;;;;;;;;5092493;28;20497;-63
2023/07/10 05:19:51;;;;;;;18.90;11.10;;;23.20;99.90;;;;;;5098948;27;20783;-62
2023/07/10 05:22:20;;;;;;;12.43;11.20;;;23.30;99.90;;;;;;5100434;27;21016;-63
2023/07/10 05:24:46;;;;;;;11.60;10.40;;;23.50;99.90;;;;;;5085610;27;20487;-63
2023/07/10 05:27:13;;;;;;;13.60;12.37;;;23.50;99.90;;;;;;5062230;28;20464;-63
2023/07/10 05:29:40;;;;;;;16.80;11.07;;;23.60;99.90;;;;;;5088823;27;21019;-62
2023/07/10 05:32:08;;;;;;;13.43;11.90;;;23.80;99.90;;;;;;5080967;27;20513;-63
2023/07/10 05:34:34;;;;;;;14.50;12.37;;;23.90;99.90;;;;;;5105880;27;20464;-63
2023/07/10 05:37:01;;;;;;;12.20;11.07;;;23.90;99.90;;;;;;5100569;27;20725;-63
2023/07/10 05:39:30;;;;;;;12.70;11.47;;;24.00;99.90;;;;;;5081735;27;20474;-62
2023/07/10 05:41:58;;;;;;;12.60;11.10;;;24.00;99.90;;;;;;5083654;28;20484;-62
2023/07/10 05:44:25;;;;;;;15.13;11.43;;;24.00;99.90;;;;;;5094352;27;20477;-61
2023/07/10 05:46:55;;;;;;;13.93;11.03;;;24.00;99.90;;;;;;5106083;27;20467;-62
2023/07/10 05:49:22;;;;;;;14.80;11.37;;;24.00;99.90;;;;;;5083704;28;20480;-62
2023/07/10 05:51:49;;;;;;;20.00;11.47;;;24.00;99.90;;;;;;5081692;28;20484;-62
2023/07/10 05:54:16;;;;;;;17.83;13.20;;;24.10;99.90;;;;;;5085563;28;20477;-62
2023/07/10 05:56:44;;;;;;;16.40;12.00;;;24.00;99.90;;;;;;5093340;28;20481;-62
2023/07/10 05:59:12;;;;;;;17.10;12.97;;;24.00;99.90;;;;;;5086335;27;20776;-62
2023/07/10 06:01:39;;;;;;;17.13;11.60;;;24.10;99.90;;;;;;5091567;28;20484;-63
2023/07/10 06:04:06;;;;;;;17.87;12.23;;;24.30;99.90;;;;;;5075732;27;20473;-62
2023/07/10 06:06:33;;;;;;;18.13;12.07;;;24.30;99.90;;;;;;5113540;27;20502;-62
2023/07/10 06:09:00;;;;;;;19.23;11.83;;;24.40;99.90;;;;;;5081755;28;20481;-63
2023/07/10 06:11:27;;;;;;;13.10;11.60;;;24.40;99.90;;;;;;5097907;27;20468;-62
2023/07/10 06:13:55;;;;;;;24.17;12.03;;;24.50;99.90;;;;;;5104643;27;20797;-62
2023/07/10 06:16:22;;;;;;;20.70;12.47;;;24.50;99.90;;;;;;5106323;27;20926;-63
2023/07/10 06:18:49;;;;;;;14.87;12.27;;;24.50;99.90;;;;;;5108564;27;20928;-62
2023/07/10 06:21:15;;;;;;;16.80;13.23;;;24.60;99.90;;;;;;5106420;27;20479;-62
2023/07/10 06:23:42;;;;;;;22.27;11.50;;;24.70;99.90;;;;;;5104442;27;20478;-63
2023/07/10 06:26:09;;;;;;;20.80;14.13;;;24.70;99.90;;;;;;5108113;27;20491;-63
2023/07/10 06:28:36;;;;;;;19.37;13.70;;;24.80;99.90;;;;;;5096328;27;20453;-62
2023/07/10 06:31:07;;;;;;;18.20;12.57;;;24.90;99.90;;;;;;5098012;27;20471;-63
2023/07/10 06:33:34;;;;;;;13.93;11.70;;;25.00;99.90;;;;;;5101682;27;20445;-66
2023/07/10 06:36:02;;;;;;;17.97;13.60;;;25.00;99.90;;;;;;5081487;27;20499;-63
2023/07/10 06:38:29;;;;;;;18.90;11.03;;;25.00;99.90;;;;;;5094351;27;20747;-64
2023/07/10 06:40:56;;;;;;;17.23;12.30;;;25.20;99.90;;;;;;5096498;27;20503;-62
2023/07/10 06:43:24;;;;;;;16.47;11.80;;;25.30;99.90;;;;;;5100298;27;20883;-61
2023/07/10 06:45:52;;;;;;;16.13;12.23;;;25.30;99.90;;;;;;5090910;27;20484;-61
2023/07/10 06:48:20;;;;;;;14.20;12.80;;;25.30;99.90;;;;;;5096593;27;20463;-61
2023/07/10 06:50:49;;;;;;;18.63;12.00;;;25.30;99.90;;;;;;5095576;28;20473;-62
2023/07/10 06:53:16;;;;;;;18.07;13.10;;;25.40;99.90;;;;;;5093893;27;21049;-61
2023/07/10 06:55:44;;;;;;;12.30;10.30;;;25.60;99.90;;;;;;5096102;27;20496;-61
2023/07/10 06:58:12;;;;;;;30.10;14.97;;;25.60;99.90;;;;;;5095463;28;20485;-62
2023/07/10 07:00:40;;;;;;;24.93;11.97;;;25.70;99.90;;;;;;5096292;27;20938;-63
2023/07/10 07:03:07;;;;;;;13.57;11.77;;;25.70;99.90;;;;;;5110946;27;20690;-62
2023/07/10 07:05:36;;;;;;;19.47;12.97;;;25.90;99.90;;;;;;5077923;27;21052;-62
2023/07/10 07:08:04;;;;;;;15.90;12.23;;;27.50;99.90;;;;;;5086869;27;20877;-61
2023/07/10 07:10:32;;;;;;;19.30;11.90;;;26.20;99.90;;;;;;5081257;27;20579;-63
2023/07/10 07:12:59;;;;;;;23.50;11.90;;;26.40;99.90;;;;;;5092722;28;21005;-63
2023/07/10 07:15:26;;;;;;;18.73;12.57;;;26.40;99.90;;;;;;5091995;28;20479;-62
2023/07/10 07:17:53;;;;;;;18.53;12.97;;;;;;;;;;5095818;27;20477;-62
2023/07/10 07:20:20;;;;;;;22.23;12.47;;;26.50;99.90;;;;;;5085872;28;20537;-62
2023/07/10 07:22:48;;;;;;;15.57;10.73;;;26.50;99.90;;;;;;5099551;27;20475;-63
2023/07/10 07:25:15;;;;;;;17.40;12.23;;;26.40;99.90;;;;;;5095664;27;20454;-63
2023/07/10 07:27:42;;;;;;;19.53;12.00;;;26.50;99.90;;;;;;5097157;28;20546;-63
2023/07/10 07:30:11;;;;;;;15.00;13.63;;;26.60;99.90;;;;;;5089573;28;20915;-62
2023/07/10 07:32:38;;;;;;;16.30;10.50;;;;;;;;;;5089899;27;20588;-62
2023/07/10 07:35:05;;;;;;;18.10;13.10;;;26.80;99.90;;;;;;5094612;27;20485;-62
2023/07/10 07:37:32;;;;;;;14.67;10.87;;;26.90;99.90;;;;;;5088503;27;20484;-62
2023/07/10 07:40:02;;;;;;;17.63;14.00;;;27.10;99.90;;;;;;5106037;27;20473;-62
2023/07/10 07:42:29;;;;;;;23.43;10.93;;;27.00;99.90;;;;;;5103771;27;20907;-62
2023/07/10 07:44:57;;;;;;;19.67;12.10;;;27.10;99.90;;;;;;5093000;27;20473;-62
2023/07/10 07:47:24;;;;;;;23.07;12.93;;;27.20;99.90;;;;;;5091229;27;20459;-62
2023/07/10 07:49:51;;;;;;;26.27;13.43;;;27.30;99.90;;;;;;5082802;28;20623;-62
2023/07/10 07:52:18;;;;;;;13.77;11.60;;;;;;;;;;5088894;27;20466;-63
2023/07/10 07:54:45;;;;;;;23.33;13.10;;;27.70;99.90;;;;;;5109987;27;20898;-62
2023/07/10 07:57:14;;;;;;;12.57;11.23;;;27.90;99.90;;;;;;5096726;28;20462;-62
2023/07/10 07:59:40;;;;;;;12.27;9.63;;;28.00;99.90;;;;;;5091928;27;20466;-63
2023/07/10 08:02:09;;;;;;;13.80;11.80;;;28.30;98.60;;;;;;5090728;27;20505;-63
2023/07/10 08:04:36;;;;;;;13.77;10.97;;;28.40;98.80;;;;;;5080165;27;21106;-63
2023/07/10 08:07:03;;;;;;;13.37;11.83;;;28.60;98.50;;;;;;5085640;28;20981;-62
2023/07/10 08:09:30;;;;;;;11.40;10.20;;;28.90;98.40;;;;;;5107835;27;20483;-63
2023/07/10 08:11:56;;;;;;;18.23;12.80;;;29.00;97.40;;;;;;5112402;27;21028;-63
2023/07/10 08:14:25;;;;;;;13.97;10.43;;;29.00;96.50;;;;;;5113941;27;20439;-63
2023/07/10 08:16:52;;;;;;;18.03;12.13;;;28.90;96.50;;;;;;5112429;27;20970;-62
2023/07/10 08:19:19;;;;;;;28.60;12.93;;;28.90;97.10;;;;;;5114042;27;21064;-63
2023/07/10 08:21:47;;;;;;;11.50;9.60;;;28.80;96.10;;;;;;5117447;27;20459;-62
2023/07/10 08:24:14;;;;;;;15.73;11.60;;;28.80;96.80;;;;;;5114587;27;20487;-62
2023/07/10 08:26:41;;;;;;;13.17;10.90;;;29.00;96.90;;;;;;5108997;27;20454;-63
2023/07/10 08:29:26;;;;;;;25.63;13.27;;;28.90;96.60;;;;;;5086786;27;20463;-64
2023/07/10 08:31:54;;;;;;;12.03;10.33;;;29.00;96.60;;;;;;5112605;27;20934;-64
2023/07/10 08:34:21;;;;;;;14.40;12.40;;;28.90;95.90;;;;;;5113487;27;20494;-64
2023/07/10 08:36:48;;;;;;;13.40;12.00;;;28.90;96.30;;;;;;5117820;27;20456;-63
2023/07/10 08:39:15;;;;;;;14.60;13.20;;;28.90;96.60;;;;;;5115210;27;20464;-63
2023/07/10 08:41:42;;;;;;;12.33;10.90;;;29.00;96.60;;;;;;5110689;27;20486;-63
2023/07/10 08:44:12;;;;;;;14.50;13.10;;;29.00;96.00;;;;;;5112182;27;20483;-62
2023/07/10 08:46:40;;;;;;;15.93;12.60;;;29.10;95.90;;;;;;5110876;27;20455;-62
2023/07/10 08:49:15;;;;;;;14.70;13.30;;;29.20;95.80;;;;;;5114978;27;20467;-62
2023/07/10 08:51:50;;;;;;;21.10;12.53;;;29.40;95.90;;;;;;5120290;27;20490;-62
2023/07/10 08:54:18;;;;;;;16.20;11.77;;;29.40;93.80;;;;;;5115568;27;20465;-62
2023/07/10 08:56:49;;;;;;;15.40;10.67;;;29.40;94.60;;;;;;5122467;27;20512;-62
2023/07/10 08:59:35;;;;;;;12.77;11.13;;;29.50;93.90;;;;;;5080650;27;20453;-62
2023/07/10 09:02:04;;;;;;;15.20;11.57;;;29.60;94.30;;;;;;5088068;27;20837;-62
2023/07/10 09:04:32;;;;;;;10.63;8.93;;;29.60;93.90;;;;;;5121438;27;20470;-64
2023/07/10 09:07:02;;;;;;;13.17;9.20;;;29.80;92.80;;;;;;5121025;27;20932;-63
2023/07/10 09:09:37;;;;;;;11.30;10.20;;;29.90;92.70;;;;;;5117881;27;20478;-63
2023/07/10 09:12:15;;;;;;;11.70;10.60;;;29.90;92.40;;;;;;5089786;27;20438;-63
2023/07/10 09:14:49;;;;;;;11.40;9.77;;;29.90;92.20;;;;;;5108490;27;20962;-63
2023/07/10 09:17:25;;;;;;;18.90;10.93;;;29.90;91.90;;;;;;5117296;27;20827;-64
2023/07/10 09:19:57;;;;;;;9.57;8.20;;;29.90;92.20;;;;;;5118359;27;20513;-63
2023/07/10 09:22:24;;;;;;;9.50;8.50;;;30.00;90.70;;;;;;5106453;27;20503;-63
2023/07/10 09:24:51;;;;;;;11.00;9.53;;;30.10;91.30;;;;;;5105955;27;20458;-63
2023/07/10 09:27:18;;;;;;;11.13;10.03;;;30.10;91.10;;;;;;5092915;27;20487;-64
2023/07/10 09:29:49;;;;;;;11.53;8.67;;;30.10;89.40;;;;;;5077217;27;20462;-64
2023/07/10 09:32:19;;;;;;;10.03;9.07;;;30.10;90.00;;;;;;5102519;27;21069;-63
2023/07/10 09:34:48;;;;;;;17.20;9.53;;;30.00;89.30;;;;;;5117396;27;20830;-63
2023/07/10 09:37:19;;;;;;;12.17;11.10;;;30.00;89.70;;;;;;5116361;27;20484;-65
2023/07/10 09:39:45;;;;;;;11.20;9.57;;;29.90;88.90;;;;;;5089769;27;20523;-63
2023/07/10 09:42:15;;;;;;;10.80;9.70;;;30.00;89.10;;;;;;5116533;27;20817;-63
2023/07/10 09:44:56;;;;;;;9.90;8.90;;;29.90;89.10;;;;;;5119237;27;20456;-63
2023/07/10 09:47:24;;;;;;;12.07;7.53;;;30.20;89.30;;;;;;5117569;27;20449;-63
2023/07/10 09:49:54;;;;;;;9.77;8.70;;;30.00;85.60;;;;;;5116910;27;20994;-63
2023/07/10 09:52:23;;;;;;;16.03;7.90;;;;;;;;;;5116813;27;20453;-64
2023/07/10 09:54:59;;;;;;;8.33;7.60;;;30.30;86.10;;;;;;5118371;27;20471;-65
2023/07/10 09:57:26;;;;;;;9.50;7.90;;;30.40;86.10;;;;;;5115834;27;20462;-64
2023/07/10 09:59:54;;;;;;;10.03;9.03;;;30.40;85.60;;;;;;5094904;27;20831;-63
2023/07/10 10:02:24;;;;;;;9.03;7.70;;;30.40;85.60;;;;;;5089937;27;20943;-64
2023/07/10 10:05:04;;;;;;;8.83;8.00;;;30.30;85.20;;;;;;5114590;27;20444;-64
2023/07/10 10:07:36;;;;;;;8.30;7.50;;;30.20;82.00;;;;;;5116438;27;20468;-65
2023/07/10 10:10:26;;;;;;;10.80;9.90;;;30.00;82.70;;;;;;5118843;27;21122;-63
2023/07/10 10:13:04;;;;;;;8.53;7.73;;;30.00;83.10;;;;;;5088692;27;20640;-64
2023/07/10 10:15:42;;;;;;;11.40;8.17;;;30.20;83.40;;;;;;5107203;27;20499;-63
2023/07/10 10:18:25;;;;;;;9.80;8.90;;;30.40;84.60;;;;;;5104083;27;20938;-64
2023/07/10 10:20:54;;;;;;;14.37;7.57;;;30.60;81.50;;;;;;5084977;27;20695;-63
2023/07/10 10:23:31;;;;;;;8.37;7.57;;;30.70;83.00;;;;;;5111573;27;20451;-65
2023/07/10 10:26:18;;;;;;;9.73;7.67;;;30.90;81.60;;;;;;5077893;27;20829;-64
2023/07/10 10:28:51;;;;;;;10.07;7.30;;;31.10;81.10;;;;;;5093324;27;20926;-64
2023/07/10 10:31:25;;;;;;;9.30;7.73;;;30.60;78.90;;;;;;5094565;27;20462;-64
2023/07/10 10:34:01;;;;;;;7.50;6.70;;;30.80;78.10;;;;;;5082355;28;20450;-63
2023/07/10 10:36:38;;;;;;;6.00;5.50;;;31.10;78.50;;;;;;5082063;27;20488;-64
2023/07/10 10:39:14;;;;;;;8.60;7.50;;;31.40;77.30;;;;;;5083285;28;20480;-64
2023/07/10 10:41:47;;;;;;;8.47;6.43;;;31.50;76.90;;;;;;5077239;27;20940;-63
2023/07/10 10:44:28;;;;;;;7.83;7.13;;;31.70;75.90;;;;;;5109820;27;20458;-65
2023/07/10 10:47:12;;;;;;;7.30;6.70;;;31.60;75.70;;;;;;5109713;27;20461;-63
2023/07/10 10:49:55;;;;;;;7.50;6.77;;;31.60;74.90;;;;;;5111769;27;20474;-63
2023/07/10 10:52:33;;;;;;;17.13;7.60;;;31.50;75.20;;;;;;5090440;27;20480;-63
2023/07/10 10:55:19;;;;;;;9.60;5.37;;;31.40;71.30;;;;;;5084667;27;20451;-63
2023/07/10 10:57:58;;;;;;;9.90;6.07;;;31.60;71.40;;;;;;5102143;27;20461;-63
2023/07/10 11:00:42;;;;;;;6.93;6.13;;;31.70;72.00;;;;;;5077879;28;20451;-64
2023/07/10 11:03:16;;;;;;;8.10;7.30;;;31.40;75.30;;;;;;5069346;27;20488;-63
2023/07/10 11:05:48;;;;;;;12.73;7.63;;;31.50;74.30;;;;;;5081826;27;20802;-64
2023/07/10 11:08:22;;;;;;;10.67;8.37;;;31.70;73.20;;;;;;5099201;27;20470;-63
2023/07/10 11:10:50;;;;;;;8.73;7.77;;;31.80;75.60;;;;;;5088945;27;20939;-63
2023/07/10 11:13:30;;;;;;;13.90;8.47;;;31.80;71.70;;;;;;5113175;27;20486;-64
2023/07/10 11:15:58;;;;;;;8.40;6.70;;;31.90;72.10;;;;;;5113074;27;20471;-63
2023/07/10 11:18:25;;;;;;;8.80;7.03;;;31.90;69.70;;;;;;5124094;27;20455;-64
2023/07/10 11:20:53;;;;;;;11.37;6.33;;;31.80;69.00;;;;;;5102684;27;21011;-63
2023/07/10 11:23:35;;;;;;;6.70;6.13;;;31.90;68.70;;;;;;5101020;27;20465;-63
2023/07/10 11:26:04;;;;;;;16.03;7.50;;;32.00;70.70;;;;;;5111198;27;20989;-63
2023/07/10 11:28:32;;;;;;;6.10;5.60;;;32.00;68.10;;;;;;5109613;27;20453;-64
2023/07/10 11:31:22;;;;;;;7.03;6.43;;;32.00;67.50;;;;;;5120699;27;20491;-64
2023/07/10 11:33:54;;;;;;;6.17;5.57;;;31.90;67.90;;;;;;5120954;27;20719;-64
2023/07/10 11:39:20;;;;;;;9.97;8.93;;;31.20;67.10;;;;;;5065696;27;20918;-64
2023/07/10 11:42:13;;;;;;;13.50;7.00;;;31.50;68.90;;;;;;5071287;27;20447;-64
2023/07/10 11:44:41;;;;;;;9.47;5.40;;;31.50;67.70;;;;;;5084459;27;20473;-64
2023/07/10 11:47:22;;;;;;;9.17;5.47;;;31.50;66.90;;;;;;5050080;27;20540;-64
2023/07/10 11:50:14;;;;;;;4.20;3.80;;;31.60;67.60;;;;;;5067932;27;20629;-63
2023/07/10 11:52:42;;;;;;;4.73;4.30;;;31.70;66.40;;;;;;5077338;27;20476;-64
2023/07/10 11:55:14;;;;;;;5.47;4.97;;;31.90;68.20;;;;;;5070471;27;20969;-64
2023/07/10 11:57:41;;;;;;;5.00;4.60;;;32.00;65.50;;;;;;5065837;28;20522;-64
2023/07/10 12:00:24;;;;;;;12.40;5.83;;;32.10;65.00;;;;;;5042404;28;20901;-64
2023/07/10 12:02:53;;;;;;;10.17;4.63;;;32.00;65.60;;;;;;5075413;28;20464;-64
2023/07/10 12:05:22;;;;;;;4.10;3.80;;;32.00;66.10;;;;;;5075554;27;20487;-64
2023/07/10 12:07:54;;;;;;;4.70;4.30;;;31.90;66.20;;;;;;5088604;27;20536;-64
2023/07/10 12:10:23;;;;;;;12.83;4.80;;;32.10;64.90;;;;;;5079220;27;20451;-64
2023/07/10 12:12:50;;;;;;;8.03;3.77;;;32.20;66.40;;;;;;5073315;27;21148;-64
2023/07/10 12:15:17;;;;;;;19.00;5.57;;;32.30;62.80;;;;;;5041921;27;20494;-64
2023/07/10 12:17:45;;;;;;;4.20;3.80;;;32.40;63.90;;;;;;5062818;28;20611;-64
2023/07/10 12:20:25;;;;;;;5.37;4.97;;;32.40;62.10;;;;;;5072660;27;20455;-64
2023/07/10 12:22:54;;;;;;;4.13;3.80;;;32.40;64.10;;;;;;5054967;27;20482;-64
2023/07/10 12:25:22;;;;;;;4.73;3.90;;;32.30;64.90;;;;;;5049557;28;20530;-64
2023/07/10 12:27:49;;;;;;;5.20;4.70;;;32.40;64.80;;;;;;5042799;28;20487;-63
2023/07/10 12:30:20;;;;;;;6.40;5.20;;;32.30;63.40;;;;;;5043250;28;20482;-63
2023/07/10 12:32:49;;;;;;;4.50;4.10;;;32.30;65.80;;;;;;5048527;28;20482;-64
2023/07/10 12:35:22;;;;;;;6.40;4.63;;;32.30;64.60;;;;;;5036745;28;20483;-64
2023/07/10 12:37:50;;;;;;;4.17;3.80;;;32.30;63.10;;;;;;5033406;27;20480;-64
2023/07/10 12:40:18;;;;;;;4.97;4.57;;;32.40;63.90;;;;;;5043438;28;20617;-64
2023/07/10 12:42:48;;;;;;;7.43;4.60;;;32.60;64.50;;;;;;5036911;28;20479;-64
2023/07/10 12:45:28;;;;;;;5.03;4.63;;;32.60;64.40;;;;;;5040226;28;20479;-64
2023/07/10 12:48:01;;;;;;;4.90;3.97;;;32.50;64.90;;;;;;5043132;28;20694;-64
2023/07/10 12:50:37;;;;;;;4.00;3.70;;;32.50;63.20;;;;;;5029691;28;20497;-65